Time;durP1;ratioP1;P1;durP2;ratioP2;P2;SDS_P1;SDS_P2;PMS_P1;PMS_P2;Temp;Humidity;BMP_temperature;BMP_pressure;BME280_temperature;BME280_humidity;BME280_pressure;Samples;Min_cycle;Max_cycle;Signal;HPM_P1;HPM_P2
2021/12/23 00:01:46;;;;;;;3.63;1.80;;;24.60;91.20;;;;;;5074550;28;20503;-53
2021/12/23 00:04:14;;;;;;;3.17;2.15;;;24.70;91.30;;;;;;5074142;28;20471;-54
2021/12/23 00:06:44;;;;;;;2.53;1.60;;;24.70;91.30;;;;;;5074170;28;20478;-53
2021/12/23 00:09:12;;;;;;;2.45;1.60;;;24.70;91.30;;;;;;5074644;28;20091;-54
2021/12/23 00:11:40;;;;;;;2.25;1.67;;;24.60;91.30;;;;;;5072985;28;20032;-53
2021/12/23 00:14:09;;;;;;;4.35;2.08;;;24.60;91.30;;;;;;5074203;28;20029;-57
2021/12/23 00:16:55;;;;;;;3.25;2.00;;;24.70;91.40;;;;;;5074207;28;20032;-59
2021/12/23 00:19:36;;;;;;;3.92;2.00;;;24.60;91.30;;;;;;5074329;28;20104;-60
2021/12/23 00:24:50;;;;;;;3.00;1.95;;;24.70;91.30;;;;;;5074566;28;20043;-56
2021/12/23 00:27:18;;;;;;;3.25;1.92;;;24.60;91.30;;;;;;5074259;28;20449;-56
2021/12/23 00:29:48;;;;;;;3.53;2.25;;;24.70;91.30;;;;;;5074228;28;20028;-58
2021/12/23 00:32:15;;;;;;;2.75;1.98;;;24.60;91.30;;;;;;5073704;28;20028;-59
2021/12/23 00:34:43;;;;;;;3.03;1.95;;;24.60;91.30;;;;;;5072840;28;20028;-55
2021/12/23 00:37:12;;;;;;;1.98;1.65;;;24.60;91.40;;;;;;5073768;28;20021;-57
2021/12/23 00:39:39;;;;;;;3.78;2.08;;;24.60;91.40;;;;;;5074063;28;20029;-53
2021/12/23 00:42:08;;;;;;;2.10;1.73;;;24.70;91.40;;;;;;5072054;28;20024;-63
2021/12/23 00:44:40;;;;;;;2.17;1.60;;;24.60;91.40;;;;;;5073687;28;20052;-48
2021/12/23 00:47:07;;;;;;;4.10;1.63;;;24.60;91.40;;;;;;5073230;28;20382;-60
2021/12/23 00:49:35;;;;;;;2.17;1.80;;;24.60;91.30;;;;;;5073359;28;20028;-61
2021/12/23 00:52:04;;;;;;;2.90;2.10;;;24.60;91.30;;;;;;5071798;28;20024;-60
2021/12/23 00:54:31;;;;;;;3.40;1.98;;;24.60;91.30;;;;;;5073613;28;20044;-57
2021/12/23 00:56:58;;;;;;;5.25;2.25;;;24.60;91.30;;;;;;5073490;28;20487;-57
2021/12/23 00:59:26;;;;;;;2.10;1.90;;;24.60;91.30;;;;;;5073366;28;20112;-56
2021/12/23 01:01:54;;;;;;;2.80;2.00;;;24.60;91.30;;;;;;5073221;28;20025;-61
2021/12/23 01:04:22;;;;;;;2.53;2.17;;;24.60;91.40;;;;;;5073381;28;20451;-55
2021/12/23 01:06:49;;;;;;;4.13;2.05;;;24.60;91.40;;;;;;5073402;28;20103;-53
2021/12/23 01:09:17;;;;;;;3.50;1.95;;;24.50;91.40;;;;;;5073620;28;20467;-57
2021/12/23 01:11:44;;;;;;;3.65;1.88;;;24.60;91.50;;;;;;5073097;28;20067;-51
2021/12/23 01:17:10;;;;;;;3.90;2.30;;;24.60;91.50;;;;;;5073007;28;20383;-60
2021/12/23 01:19:39;;;;;;;3.15;2.20;;;24.50;91.50;;;;;;5071511;28;20028;-59
2021/12/23 01:22:08;;;;;;;3.17;1.85;;;24.50;91.50;;;;;;5073176;28;20554;-59
2021/12/23 01:24:36;;;;;;;3.60;2.05;;;24.60;91.60;;;;;;5072859;28;20037;-55
2021/12/23 01:27:04;;;;;;;3.83;2.17;;;24.60;91.70;;;;;;5073170;28;20361;-58
2021/12/23 01:29:32;;;;;;;3.83;2.38;;;24.50;91.70;;;;;;5073250;28;20028;-55
2021/12/23 01:32:04;;;;;;;4.22;2.40;;;24.60;92.20;;;;;;5072724;28;20107;-58
2021/12/23 01:34:36;;;;;;;3.80;2.40;;;24.60;91.90;;;;;;5073343;28;20085;-55
2021/12/23 01:37:06;;;;;;;8.13;2.55;;;24.60;92.00;;;;;;5072943;28;20048;-52
2021/12/23 01:39:37;;;;;;;3.22;2.28;;;24.60;92.90;;;;;;5072833;28;20051;-55
2021/12/23 01:42:05;;;;;;;2.67;1.80;;;24.60;91.80;;;;;;5072566;28;20105;-59
2021/12/23 01:44:32;;;;;;;3.35;1.92;;;24.70;91.60;;;;;;5072522;28;20040;-61
2021/12/23 01:47:00;;;;;;;3.35;2.30;;;24.70;91.70;;;;;;5072879;28;20023;-56
2021/12/23 01:49:27;;;;;;;4.15;2.35;;;24.70;92.00;;;;;;5072677;28;20024;-54
2021/12/23 01:51:55;;;;;;;4.30;2.53;;;24.70;91.90;;;;;;5072675;28;20024;-59
2021/12/23 01:54:22;;;;;;;5.28;3.10;;;24.80;92.20;;;;;;5072073;28;20052;-54
2021/12/23 01:56:51;;;;;;;4.95;2.50;;;24.80;92.30;;;;;;5072518;28;20032;-57
2021/12/23 01:59:19;;;;;;;6.82;2.90;;;24.80;92.20;;;;;;5073121;28;20441;-59
2021/12/23 02:01:46;;;;;;;7.80;3.13;;;24.80;92.10;;;;;;5071725;28;20066;-58
2021/12/23 02:04:13;;;;;;;5.47;2.50;;;24.90;92.10;;;;;;5071746;28;20039;-62
2021/12/23 02:06:41;;;;;;;5.18;2.72;;;24.90;92.70;;;;;;5073477;28;20032;-58
2021/12/23 02:09:08;;;;;;;6.47;3.08;;;24.90;92.40;;;;;;5072962;28;20103;-56
2021/12/23 02:11:36;;;;;;;5.75;2.85;;;25.00;92.90;;;;;;5071447;28;20028;-55
2021/12/23 02:14:03;;;;;;;5.15;2.60;;;25.10;92.60;;;;;;5073138;28;20056;-52
2021/12/23 02:16:31;;;;;;;7.70;2.67;;;25.10;91.90;;;;;;5072662;28;20482;-59
2021/12/23 02:18:58;;;;;;;4.25;1.95;;;25.20;92.10;;;;;;5072714;28;20059;-57
2021/12/23 02:21:26;;;;;;;3.60;2.13;;;25.20;91.30;;;;;;5072507;28;20025;-54
2021/12/23 02:23:53;;;;;;;4.13;2.22;;;25.20;91.10;;;;;;5072388;28;20025;-55
2021/12/23 02:26:20;;;;;;;7.40;3.10;;;25.30;91.20;;;;;;5072879;28;20114;-57
2021/12/23 02:28:48;;;;;;;7.20;2.55;;;25.30;91.30;;;;;;5073024;28;20107;-60
2021/12/23 02:31:16;;;;;;;5.25;2.45;;;25.40;91.30;;;;;;5072674;28;20036;-59
2021/12/23 02:33:43;;;;;;;8.60;3.30;;;25.40;90.80;;;;;;5072371;28;20048;-56
2021/12/23 02:36:11;;;;;;;8.02;3.53;;;25.50;91.40;;;;;;5071927;28;20051;-59
2021/12/23 02:38:38;;;;;;;4.53;2.35;;;25.60;91.30;;;;;;5071906;28;20125;-59
2021/12/23 02:41:06;;;;;;;5.97;2.70;;;25.60;91.20;;;;;;5072843;28;20471;-59
2021/12/23 02:43:35;;;;;;;5.35;2.22;;;25.70;90.90;;;;;;5072483;28;20029;-56
2021/12/23 02:46:03;;;;;;;6.63;2.60;;;25.70;90.40;;;;;;5071672;28;20045;-55
2021/12/23 02:48:34;;;;;;;4.40;2.58;;;25.70;90.60;;;;;;5072084;28;20029;-55
2021/12/23 02:51:04;;;;;;;7.38;3.15;;;25.80;90.60;;;;;;5072054;28;20028;-60
2021/12/23 02:53:32;;;;;;;8.82;3.40;;;25.80;90.70;;;;;;5070594;28;20044;-57
2021/12/23 02:56:01;;;;;;;3.25;1.73;;;25.90;90.70;;;;;;5071851;28;20024;-58
2021/12/23 02:58:29;;;;;;;7.43;3.55;;;25.90;90.00;;;;;;5072130;28;20502;-59
2021/12/23 03:00:58;;;;;;;3.88;2.50;;;25.90;90.50;;;;;;5071908;28;20490;-59
2021/12/23 03:03:25;;;;;;;5.78;2.58;;;25.90;90.20;;;;;;5070886;28;20036;-61
2021/12/23 03:05:55;;;;;;;4.50;2.42;;;25.90;90.10;;;;;;5071166;28;20086;-60
2021/12/23 03:08:40;;;;;;;6.55;2.72;;;26.00;90.30;;;;;;5072101;28;20032;-59
2021/12/23 03:11:09;;;;;;;5.90;2.20;;;25.90;90.20;;;;;;5071668;28;20032;-60
2021/12/23 03:13:37;;;;;;;4.88;2.03;;;25.90;90.10;;;;;;5071585;28;20140;-56
2021/12/23 03:16:06;;;;;;;5.32;2.78;;;25.90;90.10;;;;;;5072147;28;20121;-56
2021/12/23 03:18:33;;;;;;;5.13;2.35;;;25.90;90.30;;;;;;5075605;28;20036;-58
2021/12/23 03:21:02;;;;;;;8.80;2.92;;;25.90;90.50;;;;;;5075712;28;20541;-57
2021/12/23 03:23:30;;;;;;;5.22;2.45;;;25.90;90.60;;;;;;5074254;28;20032;-60
2021/12/23 03:25:57;;;;;;;4.60;2.50;;;26.00;90.50;;;;;;5074093;28;20090;-58
2021/12/23 03:28:24;;;;;;;6.32;2.88;;;26.00;90.30;;;;;;5075280;28;20024;-61
2021/12/23 03:30:52;;;;;;;6.18;2.40;;;26.00;90.60;;;;;;5075156;28;20028;-59
2021/12/23 03:33:20;;;;;;;6.32;2.75;;;26.00;90.10;;;;;;5073926;28;20435;-57
2021/12/23 03:35:48;;;;;;;6.68;2.72;;;26.00;90.50;;;;;;5075176;28;20506;-59
2021/12/23 03:38:17;;;;;;;4.63;2.08;;;26.10;90.10;;;;;;5075051;28;20487;-58
2021/12/23 03:40:45;;;;;;;5.97;2.80;;;26.10;90.10;;;;;;5075359;28;20033;-60
2021/12/23 03:43:14;;;;;;;9.48;3.10;;;26.20;90.40;;;;;;5074827;28;20025;-59
2021/12/23 03:45:44;;;;;;;6.43;2.65;;;26.20;90.30;;;;;;5074962;28;20063;-61
2021/12/23 03:48:13;;;;;;;6.05;2.58;;;26.30;89.90;;;;;;5074423;28;20090;-57
2021/12/23 03:50:42;;;;;;;5.25;2.20;;;26.20;90.30;;;;;;5074586;28;20375;-56
2021/12/23 03:53:09;;;;;;;7.75;2.60;;;26.20;90.30;;;;;;5074408;28;20028;-53
2021/12/23 03:55:37;;;;;;;3.78;2.33;;;26.30;90.40;;;;;;5074748;28;20043;-59
2021/12/23 03:58:05;;;;;;;4.60;2.70;;;26.30;89.80;;;;;;5074549;28;20035;-59
2021/12/23 04:00:32;;;;;;;8.55;3.20;;;26.30;90.00;;;;;;5074638;28;20020;-57
2021/12/23 04:02:59;;;;;;;4.47;2.13;;;26.30;90.40;;;;;;5074809;28;20481;-59
2021/12/23 04:05:27;;;;;;;7.03;3.10;;;26.30;89.80;;;;;;5074774;28;20063;-59
2021/12/23 04:07:55;;;;;;;4.95;2.40;;;26.30;90.00;;;;;;5073109;28;20022;-53
2021/12/23 04:10:22;;;;;;;7.57;2.83;;;26.40;90.00;;;;;;5074294;28;20029;-56
2021/12/23 04:12:51;;;;;;;7.72;2.78;;;26.40;90.20;;;;;;5074417;28;20024;-58
2021/12/23 04:15:19;;;;;;;7.22;2.67;;;26.40;90.40;;;;;;5074219;28;20024;-55
2021/12/23 04:17:48;;;;;;;5.65;2.22;;;26.40;90.20;;;;;;5074480;28;20048;-62
2021/12/23 04:20:21;;;;;;;6.88;3.05;;;26.50;90.10;;;;;;5073959;28;20028;-62
2021/12/23 04:22:52;;;;;;;6.53;2.80;;;26.50;89.70;;;;;;5074422;28;20029;-55
2021/12/23 04:25:21;;;;;;;6.18;2.15;;;26.50;90.00;;;;;;5072985;28;20075;-55
2021/12/23 04:27:51;;;;;;;5.28;2.28;;;26.50;89.80;;;;;;5073697;28;20104;-55
2021/12/23 04:30:19;;;;;;;5.28;2.38;;;26.50;89.50;;;;;;5074390;28;20017;-58
2021/12/23 04:32:47;;;;;;;4.32;2.47;;;26.50;89.90;;;;;;5074846;28;20047;-58
2021/12/23 04:35:14;;;;;;;6.25;2.70;;;26.50;89.40;;;;;;5072892;28;20085;-58
2021/12/23 04:37:42;;;;;;;5.28;2.45;;;26.50;90.00;;;;;;5073861;28;20036;-55
2021/12/23 04:40:12;;;;;;;5.07;2.30;;;26.50;89.70;;;;;;5073583;28;20051;-56
2021/12/23 04:42:40;;;;;;;3.63;1.88;;;26.50;89.80;;;;;;5074183;28;20024;-52
2021/12/23 04:45:09;;;;;;;6.80;2.58;;;26.50;89.50;;;;;;5073778;28;20047;-60
2021/12/23 04:47:37;;;;;;;7.15;2.13;;;26.50;89.90;;;;;;5073836;28;20046;-60
2021/12/23 04:50:08;;;;;;;6.35;2.67;;;26.70;90.00;;;;;;5073102;28;20020;-55
2021/12/23 04:52:37;;;;;;;5.63;2.05;;;26.60;89.30;;;;;;5073876;28;20120;-60
2021/12/23 04:55:05;;;;;;;3.95;2.25;;;26.70;89.50;;;;;;5073499;28;20510;-58
2021/12/23 04:57:33;;;;;;;5.63;2.75;;;26.70;89.90;;;;;;5073409;28;20548;-55
2021/12/23 05:00:00;;;;;;;8.23;3.38;;;26.70;89.70;;;;;;5071896;28;20024;-59
2021/12/23 05:02:27;;;;;;;6.97;2.92;;;26.80;89.20;;;;;;5073556;28;20017;-52
2021/12/23 05:04:55;;;;;;;5.05;2.45;;;26.80;89.50;;;;;;5073410;28;20040;-51
2021/12/23 05:07:22;;;;;;;3.78;2.03;;;26.70;88.90;;;;;;5073590;28;20035;-54
2021/12/23 05:09:49;;;;;;;7.80;3.03;;;26.70;88.90;;;;;;5073357;28;20032;-56
2021/12/23 05:12:17;;;;;;;5.72;2.42;;;26.70;89.80;;;;;;5073212;28;20099;-53
2021/12/23 05:14:44;;;;;;;6.55;2.95;;;26.70;89.60;;;;;;5072874;28;20021;-53
2021/12/23 05:17:12;;;;;;;9.30;2.75;;;26.60;90.10;;;;;;5073453;28;20027;-55
2021/12/23 05:19:39;;;;;;;9.82;3.47;;;26.60;90.20;;;;;;5073023;28;20020;-58
2021/12/23 05:22:07;;;;;;;8.75;2.90;;;26.60;90.00;;;;;;5071644;28;20032;-57
2021/12/23 05:24:34;;;;;;;6.45;2.53;;;26.60;90.10;;;;;;5072956;28;20058;-53
2021/12/23 05:27:05;;;;;;;8.23;3.00;;;26.60;90.10;;;;;;5072829;28;20379;-56
2021/12/23 05:29:35;;;;;;;6.55;2.95;;;26.50;90.30;;;;;;5073075;28;20409;-59
2021/12/23 05:32:03;;;;;;;7.60;3.10;;;26.50;90.20;;;;;;5071495;28;20029;-57
2021/12/23 05:34:31;;;;;;;9.57;2.80;;;26.40;90.20;;;;;;5073249;28;20032;-57
2021/12/23 05:36:58;;;;;;;8.10;2.97;;;26.40;90.30;;;;;;5071239;28;20052;-58
2021/12/23 05:39:26;;;;;;;8.93;3.40;;;26.40;90.50;;;;;;5070721;28;20075;-57
2021/12/23 05:41:53;;;;;;;9.55;3.53;;;26.30;90.50;;;;;;5072551;28;20076;-60
2021/12/23 05:44:20;;;;;;;8.00;2.67;;;26.30;90.60;;;;;;5072243;28;20029;-50
2021/12/23 05:46:49;;;;;;;11.32;3.33;;;26.30;90.70;;;;;;5072550;28;20031;-51
2021/12/23 05:49:17;;;;;;;11.02;3.08;;;26.20;90.80;;;;;;5072321;28;20063;-49
2021/12/23 05:51:44;;;;;;;5.07;2.45;;;26.20;90.80;;;;;;5072968;28;20467;-53
2021/12/23 05:54:12;;;;;;;7.38;2.30;;;26.10;90.90;;;;;;5071366;28;20398;-53
2021/12/23 05:56:40;;;;;;;12.43;3.75;;;26.10;90.90;;;;;;5072368;28;20023;-53
2021/12/23 05:59:07;;;;;;;6.43;2.60;;;26.00;91.00;;;;;;5072061;28;20029;-50
2021/12/23 06:01:35;;;;;;;7.88;2.60;;;26.00;91.00;;;;;;5072785;28;20017;-59
2021/12/23 06:04:02;;;;;;;5.82;2.65;;;26.00;91.00;;;;;;5072197;28;20366;-56
2021/12/23 06:06:30;;;;;;;5.85;3.08;;;26.00;91.00;;;;;;5072516;28;20119;-56
2021/12/23 06:08:57;;;;;;;7.10;2.42;;;25.90;90.90;;;;;;5072379;28;20028;-51
2021/12/23 06:11:27;;;;;;;8.32;2.78;;;25.90;91.00;;;;;;5072465;28;20032;-58
2021/12/23 06:13:54;;;;;;;7.93;2.90;;;25.90;91.10;;;;;;5072064;28;20062;-59
2021/12/23 06:16:22;;;;;;;5.05;2.45;;;25.90;91.20;;;;;;5072518;28;20028;-55
2021/12/23 06:18:49;;;;;;;4.53;2.53;;;25.90;91.20;;;;;;5072339;28;20047;-57
2021/12/23 06:21:17;;;;;;;5.35;2.70;;;25.90;91.30;;;;;;5072160;28;20024;-59
2021/12/23 06:23:44;;;;;;;7.38;2.85;;;25.80;91.30;;;;;;5072361;28;20028;-58
2021/12/23 06:26:12;;;;;;;5.47;2.67;;;25.80;91.40;;;;;;5071849;28;20045;-60
2021/12/23 06:28:40;;;;;;;6.07;2.78;;;25.80;91.30;;;;;;5072040;28;20032;-57
2021/12/23 06:31:08;;;;;;;8.55;2.72;;;25.80;91.40;;;;;;5072075;28;20385;-59
2021/12/23 06:33:35;;;;;;;3.72;2.00;;;25.80;91.40;;;;;;5072242;28;20024;-57
2021/12/23 06:36:02;;;;;;;6.10;2.50;;;25.80;91.50;;;;;;5071991;28;20048;-59
2021/12/23 06:38:30;;;;;;;4.55;2.28;;;25.70;91.40;;;;;;5071876;28;20025;-56
2021/12/23 06:40:58;;;;;;;6.53;2.55;;;25.70;91.50;;;;;;5072450;28;20020;-59
2021/12/23 06:43:26;;;;;;;5.70;2.33;;;25.70;91.60;;;;;;5072374;28;20029;-58
2021/12/23 06:45:53;;;;;;;6.13;2.15;;;25.60;91.50;;;;;;5071728;28;20479;-57
2021/12/23 06:48:24;;;;;;;7.68;2.75;;;25.70;91.60;;;;;;5072570;28;20036;-61
2021/12/23 06:50:55;;;;;;;6.70;2.40;;;25.60;91.70;;;;;;5075101;28;20086;-55
2021/12/23 06:53:23;;;;;;;5.15;2.28;;;25.60;91.70;;;;;;5076060;28;20036;-59
2021/12/23 06:55:52;;;;;;;5.03;2.22;;;25.60;91.70;;;;;;5057883;28;20034;-50
2021/12/23 06:58:20;;;;;;;4.55;2.30;;;25.60;91.80;;;;;;5075583;28;20025;-58
2021/12/23 07:00:48;;;;;;;7.13;2.55;;;25.60;91.70;;;;;;5076120;28;20467;-59
2021/12/23 07:03:15;;;;;;;6.88;2.72;;;25.60;91.80;;;;;;5074645;28;20086;-55
2021/12/23 07:05:43;;;;;;;4.38;2.25;;;25.60;91.80;;;;;;5075611;28;20059;-59
2021/12/23 07:08:26;;;;;;;6.63;2.78;;;25.60;91.80;;;;;;5075565;28;20056;-56
2021/12/23 07:10:56;;;;;;;4.97;2.85;;;25.60;91.80;;;;;;5076038;28;20029;-56
2021/12/23 07:13:24;;;;;;;5.10;2.70;;;25.50;91.90;;;;;;5075511;28;20108;-59
2021/12/23 07:15:52;;;;;;;4.28;2.30;;;25.60;92.00;;;;;;5075663;28;20047;-61
2021/12/23 07:18:19;;;;;;;7.53;3.25;;;25.60;91.90;;;;;;5075746;28;20036;-53
2021/12/23 07:20:47;;;;;;;4.20;2.33;;;25.50;92.00;;;;;;5074259;28;20382;-56
2021/12/23 07:23:17;;;;;;;5.35;2.40;;;25.50;91.90;;;;;;5075745;28;20493;-54
2021/12/23 07:25:44;;;;;;;6.18;2.22;;;25.50;92.10;;;;;;5075408;28;20378;-58
2021/12/23 07:28:12;;;;;;;5.60;2.40;;;25.50;92.10;;;;;;5073926;28;20395;-58
2021/12/23 07:30:39;;;;;;;6.18;2.50;;;25.50;92.10;;;;;;5075619;28;20032;-62
2021/12/23 07:33:07;;;;;;;4.32;2.33;;;25.50;92.30;;;;;;5075169;28;20069;-56
2021/12/23 07:35:35;;;;;;;5.72;2.60;;;25.50;91.90;;;;;;5075737;28;20471;-55
2021/12/23 07:38:02;;;;;;;5.00;2.35;;;25.50;92.00;;;;;;5075052;28;20437;-60
2021/12/23 07:40:31;;;;;;;5.38;2.40;;;25.50;92.00;;;;;;5075082;28;20158;-57
2021/12/23 07:43:09;;;;;;;5.13;2.55;;;25.50;92.10;;;;;;5075082;28;20035;-59
2021/12/23 07:45:38;;;;;;;5.43;2.30;;;25.50;92.10;;;;;;5075433;28;20379;-59
2021/12/23 07:48:06;;;;;;;10.60;3.17;;;25.50;92.20;;;;;;5074739;28;20027;-52
2021/12/23 07:50:33;;;;;;;7.43;2.28;;;25.50;92.40;;;;;;5074984;28;20052;-59
2021/12/23 07:53:01;;;;;;;5.30;2.15;;;25.50;92.30;;;;;;5075016;28;20340;-57
2021/12/23 07:55:28;;;;;;;6.78;2.30;;;25.50;92.30;;;;;;5073959;28;20394;-59
2021/12/23 07:57:55;;;;;;;6.78;2.80;;;25.40;92.20;;;;;;5074496;28;20526;-59
2021/12/23 08:00:32;;;;;;;4.25;2.28;;;25.40;92.40;;;;;;5075431;28;20040;-57
2021/12/23 08:02:59;;;;;;;7.15;2.75;;;25.50;92.40;;;;;;5075347;28;20021;-59
2021/12/23 08:05:31;;;;;;;5.07;2.58;;;25.50;92.50;;;;;;5075196;28;20033;-59
2021/12/23 08:07:58;;;;;;;6.10;2.38;;;25.50;92.40;;;;;;5074767;28;20016;-58
2021/12/23 08:10:26;;;;;;;5.53;2.38;;;25.50;92.40;;;;;;5074832;28;20497;-56
2021/12/23 08:12:54;;;;;;;5.25;2.80;;;25.50;92.40;;;;;;5074847;28;20070;-53
2021/12/23 08:15:21;;;;;;;4.90;2.33;;;25.50;92.50;;;;;;5074890;28;20371;-47
2021/12/23 08:17:51;;;;;;;4.40;2.25;;;25.50;92.50;;;;;;5074971;28;20451;-57
2021/12/23 08:20:18;;;;;;;10.73;2.45;;;25.50;92.50;;;;;;5074449;28;20078;-52
2021/12/23 08:22:46;;;;;;;5.43;2.22;;;25.50;92.50;;;;;;5074731;28;20059;-59
2021/12/23 08:25:14;;;;;;;4.15;2.60;;;25.50;92.50;;;;;;5074764;28;20105;-61
2021/12/23 08:27:43;;;;;;;7.43;2.67;;;25.50;92.40;;;;;;5074756;28;20029;-54
2021/12/23 08:30:14;;;;;;;4.80;2.45;;;25.50;92.40;;;;;;5074357;28;20078;-56
2021/12/23 08:32:41;;;;;;;7.57;2.63;;;25.50;92.40;;;;;;5074798;28;20028;-59
2021/12/23 08:35:09;;;;;;;5.20;2.90;;;25.50;92.50;;;;;;5074596;28;20028;-53
2021/12/23 08:37:40;;;;;;;3.38;2.50;;;25.50;92.50;;;;;;5074786;28;20024;-58
2021/12/23 08:40:09;;;;;;;6.53;2.45;;;25.50;92.50;;;;;;5073369;28;20032;-54
2021/12/23 08:42:37;;;;;;;6.95;2.75;;;25.50;92.50;;;;;;5074694;28;20494;-59
2021/12/23 08:45:07;;;;;;;6.72;2.88;;;25.50;92.50;;;;;;5074454;28;20037;-54
2021/12/23 08:47:35;;;;;;;4.63;2.30;;;25.50;92.60;;;;;;5073697;28;20422;-58
2021/12/23 08:50:05;;;;;;;4.75;2.35;;;25.50;92.50;;;;;;5074512;28;20024;-57
2021/12/23 08:52:36;;;;;;;6.88;2.42;;;25.50;92.50;;;;;;5074551;28;20027;-58
2021/12/23 08:55:06;;;;;;;3.35;1.80;;;25.50;92.50;;;;;;5073769;28;20087;-59
2021/12/23 08:57:34;;;;;;;4.43;2.30;;;25.50;92.50;;;;;;5074351;28;20025;-60
2021/12/23 09:00:03;;;;;;;5.28;2.20;;;25.40;92.50;;;;;;5073861;28;20054;-59
2021/12/23 09:02:31;;;;;;;4.63;2.05;;;25.40;92.50;;;;;;5073069;28;20021;-57
2021/12/23 09:04:58;;;;;;;5.22;2.40;;;25.40;92.50;;;;;;5073841;28;20044;-52
2021/12/23 09:07:26;;;;;;;3.92;2.22;;;25.40;92.50;;;;;;5073895;28;20463;-56
2021/12/23 09:09:53;;;;;;;4.57;2.00;;;25.40;92.60;;;;;;5073743;28;20029;-60
2021/12/23 09:12:21;;;;;;;6.10;2.40;;;25.40;92.60;;;;;;5074156;28;20475;-59
2021/12/23 09:14:49;;;;;;;4.97;1.77;;;25.40;92.60;;;;;;5072778;28;20083;-59
2021/12/23 09:17:17;;;;;;;5.75;2.50;;;25.30;92.60;;;;;;5073840;28;20048;-54
2021/12/23 09:19:45;;;;;;;5.82;2.20;;;25.40;93.10;;;;;;5073368;28;20037;-52
2021/12/23 09:22:13;;;;;;;4.20;1.92;;;25.30;93.10;;;;;;5073198;28;20077;-53
2021/12/23 09:24:45;;;;;;;4.40;2.30;;;25.30;92.90;;;;;;5073349;28;20052;-56
2021/12/23 09:27:36;;;;;;;;;;;25.30;92.90;;;;;;5056658;28;20021;-59
2021/12/23 09:32:53;;;;;;;6.05;2.28;;;25.30;92.90;;;;;;5073717;28;20079;-60
2021/12/23 09:35:24;;;;;;;4.78;2.53;;;25.20;92.90;;;;;;5073652;28;20415;-52
2021/12/23 09:37:52;;;;;;;3.23;2.10;;;25.20;93.00;;;;;;5072091;28;20031;-52
2021/12/23 09:40:23;;;;;;;5.55;2.28;;;25.20;92.90;;;;;;5073483;28;20290;-56
2021/12/23 09:42:52;;;;;;;6.22;2.88;;;25.20;92.90;;;;;;5073412;28;20041;-60
2021/12/23 09:45:20;;;;;;;7.13;2.00;;;25.20;93.00;;;;;;5073349;28;20035;-62
2021/12/23 09:47:49;;;;;;;3.63;2.33;;;25.20;93.00;;;;;;5073341;28;20041;-58
2021/12/23 09:50:24;;;;;;;6.75;2.53;;;25.20;93.10;;;;;;5073211;28;20028;-63
2021/12/23 09:52:53;;;;;;;8.52;3.05;;;25.20;93.10;;;;;;5073284;28;20024;-63
2021/12/23 09:55:27;;;;;;;4.45;2.13;;;25.20;93.10;;;;;;5073293;28;20059;-58
2021/12/23 09:57:57;;;;;;;8.00;2.90;;;25.20;93.10;;;;;;5072786;28;20020;-65
2021/12/23 10:00:29;;;;;;;3.97;2.03;;;25.20;93.10;;;;;;5072643;28;20028;-53
2021/12/23 10:02:57;;;;;;;5.70;2.20;;;25.10;93.00;;;;;;5073197;28;20387;-60
2021/12/23 10:05:31;;;;;;;3.90;1.92;;;25.10;93.10;;;;;;5072937;28;20059;-58
2021/12/23 10:07:59;;;;;;;5.47;2.30;;;25.10;93.10;;;;;;5072595;28;20025;-49
2021/12/23 10:10:40;;;;;;;6.28;2.22;;;25.10;93.10;;;;;;5073080;28;20028;-59
2021/12/23 10:38:42;;;;;;;3.80;2.35;;;24.90;93.20;;;;;;5076772;28;20021;-57
2021/12/23 10:41:26;;;;;;;7.13;2.63;;;24.90;93.30;;;;;;5076981;28;20024;-55
2021/12/23 10:43:59;;;;;;;4.13;2.15;;;24.90;93.30;;;;;;5076428;28;20461;-54
2021/12/23 10:46:29;;;;;;;4.57;2.03;;;24.90;93.20;;;;;;5077000;28;20029;-61
2021/12/23 10:49:29;;;;;;;3.90;1.88;;;24.90;93.30;;;;;;5076888;28;20364;-51
2021/12/23 10:52:19;;;;;;;5.93;2.72;;;24.90;93.30;;;;;;5076082;28;20056;-56
2021/12/23 11:00:23;;;;;;;5.97;2.35;;;24.90;93.40;;;;;;5076600;28;20112;-52
2021/12/23 11:03:15;;;;;;;3.60;1.88;;;24.90;93.40;;;;;;5076353;28;20047;-58
2021/12/23 11:05:49;;;;;;;;;;;24.90;93.40;;;;;;5075246;28;20066;-57
2021/12/23 11:31:31;;;;;;;3.92;1.60;;;24.80;93.50;;;;;;5075739;28;20024;-49
2021/12/23 11:39:07;;;;;;;4.00;2.05;;;24.80;93.40;;;;;;5054078;28;20068;-59
2021/12/23 11:41:39;;;;;;;4.47;2.30;;;24.80;93.40;;;;;;5075585;28;20025;-59
2021/12/23 11:44:07;;;;;;;4.70;2.15;;;24.80;93.40;;;;;;5075246;28;20028;-61
2021/12/23 11:46:42;;;;;;;4.10;2.33;;;24.70;93.40;;;;;;5075584;28;20123;-59
2021/12/23 11:49:13;;;;;;;5.90;2.03;;;24.70;93.40;;;;;;5075649;28;20429;-58
2021/12/23 11:52:01;;;;;;;2.90;1.92;;;24.80;93.40;;;;;;5075256;28;20035;-60
2021/12/23 11:54:48;;;;;;;;;;;;;;;;;;;;;
2021/12/23 11:57:30;;;;;;;3.47;2.22;;;24.80;93.40;;;;;;5075245;28;20039;-60
2021/12/23 12:00:17;;;;;;;5.95;2.25;;;24.70;93.40;;;;;;5075759;28;20375;-59
2021/12/23 12:02:45;;;;;;;2.85;1.80;;;24.80;93.40;;;;;;5076138;28;20530;-60
2021/12/23 12:05:18;;;;;;;4.50;1.90;;;24.70;93.40;;;;;;5075102;28;20495;-60
2021/12/23 12:07:46;;;;;;;3.55;2.00;;;24.70;93.40;;;;;;5075519;28;20020;-59
2021/12/23 12:10:22;;;;;;;5.43;2.10;;;24.70;93.40;;;;;;5074782;28;20029;-58
2021/12/23 12:13:07;;;;;;;4.45;2.20;;;24.70;93.40;;;;;;5074925;28;20412;-61
2021/12/23 12:15:47;;;;;;;2.97;2.05;;;24.70;93.40;;;;;;5075166;28;20020;-61
2021/12/23 12:18:19;;;;;;;3.85;2.10;;;24.70;93.40;;;;;;5073901;28;20027;-58
2021/12/23 12:20:51;;;;;;;5.82;2.00;;;24.70;93.40;;;;;;5074974;28;20020;-57
2021/12/23 12:23:32;;;;;;;4.57;2.53;;;24.70;93.40;;;;;;5075249;28;20102;-61
2021/12/23 12:26:10;;;;;;;2.80;1.80;;;24.70;93.40;;;;;;5074826;28;20033;-59
2021/12/23 12:28:44;;;;;;;3.47;1.85;;;24.70;93.40;;;;;;5074872;28;20025;-59
2021/12/23 12:31:23;;;;;;;4.07;2.22;;;24.70;93.50;;;;;;5074918;28;20035;-62
2021/12/23 12:33:55;;;;;;;3.55;1.65;;;24.70;93.40;;;;;;5074854;28;20017;-60
2021/12/23 12:36:24;;;;;;;3.17;2.00;;;24.70;93.40;;;;;;5074826;28;20082;-61
2021/12/23 12:38:57;;;;;;;3.45;1.70;;;24.70;93.40;;;;;;5074553;28;20548;-59
2021/12/23 12:41:40;;;;;;;4.72;1.83;;;24.60;93.40;;;;;;5074633;28;20028;-57
2021/12/23 12:44:36;;;;;;;5.25;2.33;;;24.70;93.40;;;;;;5073999;28;20098;-56
2021/12/23 12:47:14;;;;;;;3.65;1.73;;;24.70;93.40;;;;;;5074502;28;20109;-58
2021/12/23 12:49:46;;;;;;;3.75;1.50;;;24.60;93.40;;;;;;5074138;28;20095;-58
2021/12/23 12:52:23;;;;;;;5.72;2.08;;;24.70;93.40;;;;;;5073868;28;20043;-60
2021/12/23 12:54:52;;;;;;;4.40;1.90;;;24.70;93.40;;;;;;5074236;28;20052;-59
2021/12/23 12:57:26;;;;;;;5.15;2.08;;;24.60;93.40;;;;;;5074199;28;20024;-59
2021/12/23 12:59:54;;;;;;;4.00;2.05;;;24.60;93.40;;;;;;5074310;28;20033;-59
2021/12/23 13:02:32;;;;;;;3.70;1.90;;;24.60;93.40;;;;;;5074155;28;20094;-58
2021/12/23 13:05:04;;;;;;;5.40;2.22;;;24.60;93.40;;;;;;5074601;28;20040;-58
2021/12/23 13:07:48;;;;;;;4.38;2.13;;;24.60;93.40;;;;;;5074472;28;20054;-59
2021/12/23 13:10:22;;;;;;;3.35;1.65;;;24.60;93.40;;;;;;5073959;28;20032;-56
2021/12/23 13:12:50;;;;;;;4.28;1.70;;;24.60;93.40;;;;;;5073909;28;20021;-56
2021/12/23 13:15:29;;;;;;;3.75;1.58;;;24.60;93.40;;;;;;5073947;28;20108;-60
2021/12/23 13:18:18;;;;;;;3.88;1.70;;;24.60;93.40;;;;;;5073820;28;20032;-57
2021/12/23 13:20:55;;;;;;;4.75;2.00;;;24.60;93.50;;;;;;5073746;28;20470;-58
2021/12/23 13:23:36;;;;;;;4.07;2.08;;;24.60;93.60;;;;;;5073867;28;20055;-56
2021/12/23 13:26:18;;;;;;;3.80;1.90;;;24.50;93.40;;;;;;5073562;28;20040;-61
2021/12/23 13:28:57;;;;;;;4.40;2.05;;;24.60;93.50;;;;;;5073571;28;20048;-64
2021/12/23 13:31:31;;;;;;;2.92;1.67;;;24.60;93.40;;;;;;5073701;28;20017;-55
2021/12/23 13:34:05;;;;;;;2.97;1.88;;;24.50;93.40;;;;;;5073478;28;20025;-55
2021/12/23 13:36:38;;;;;;;2.60;1.70;;;24.60;93.50;;;;;;5073762;28;20035;-52
2021/12/23 13:39:08;;;;;;;3.70;1.80;;;24.60;93.40;;;;;;5073478;28;20032;-55
2021/12/23 13:41:44;;;;;;;3.05;1.75;;;24.50;93.40;;;;;;5073568;28;20471;-52
2021/12/23 13:44:22;;;;;;;4.13;1.90;;;24.50;93.40;;;;;;5073267;28;20021;-56
2021/12/23 13:47:06;;;;;;;3.88;1.75;;;24.50;93.40;;;;;;5073735;28;20035;-53
2021/12/23 13:49:46;;;;;;;3.17;1.75;;;24.50;93.40;;;;;;5072184;28;20021;-58
2021/12/23 13:52:34;;;;;;;4.10;1.88;;;24.50;93.40;;;;;;5071855;28;20490;-58
2021/12/23 13:55:09;;;;;;;4.47;1.70;;;24.50;93.40;;;;;;5073328;28;20438;-59
2021/12/23 13:57:46;;;;;;;3.55;1.92;;;24.50;93.40;;;;;;5073254;28;20020;-59
2021/12/23 14:00:35;;;;;;;4.00;1.70;;;24.50;93.40;;;;;;5072578;28;20375;-56
2021/12/23 14:03:15;;;;;;;3.15;1.63;;;24.50;93.40;;;;;;5073317;28;20028;-60
2021/12/23 14:05:44;;;;;;;5.07;1.73;;;24.50;93.40;;;;;;5072197;28;20043;-59
2021/12/23 14:08:13;;;;;;;2.80;1.67;;;24.50;93.40;;;;;;5072877;28;20095;-57
2021/12/23 14:10:46;;;;;;;4.65;1.80;;;24.50;93.40;;;;;;5073521;28;20025;-54
2021/12/23 14:13:18;;;;;;;3.42;1.75;;;24.50;93.40;;;;;;5072688;28;20073;-50